sensor_id;sensor_type;location;lat;lon;timestamp;pressure;altitude;pressure_sealevel;temperature;humidity
21781;BME280;52576;53.614;9.894;2023-09-12T00:00:47;101025.00;;;19.42;88.68
21781;BME280;52576;53.614;9.894;2023-09-12T00:02:49;101016.03;;;19.43;88.61
21781;BME280;52576;53.614;9.894;2023-09-12T00:04:53;101022.19;;;19.44;88.75
21781;BME280;52576;53.614;9.894;2023-09-12T00:06:56;101023.88;;;19.45;88.71
21781;BME280;52576;53.614;9.894;2023-09-12T00:08:59;101022.88;;;19.46;89.08
21781;BME280;52576;53.614;9.894;2023-09-12T00:11:02;101018.56;;;19.45;88.99
21781;BME280;52576;53.614;9.894;2023-09-12T00:13:06;101016.88;;;19.44;89.23
21781;BME280;52576;53.614;9.894;2023-09-12T00:15:09;101022.19;;;19.44;89.32
21781;BME280;52576;53.614;9.894;2023-09-12T00:17:12;101018.84;;;19.42;89.31
21781;BME280;52576;53.614;9.894;2023-09-12T00:19:15;101021.81;;;19.39;89.47
21781;BME280;52576;53.614;9.894;2023-09-12T00:21:19;101020.28;;;19.36;89.67
21781;BME280;52576;53.614;9.894;2023-09-12T00:23:22;101014.44;;;19.32;89.72
21781;BME280;52576;53.614;9.894;2023-09-12T00:25:25;101020.06;;;19.29;89.63
21781;BME280;52576;53.614;9.894;2023-09-12T00:27:28;101022.03;;;19.27;89.78
21781;BME280;52576;53.614;9.894;2023-09-12T00:29:31;101018.69;;;19.25;90.09
21781;BME280;52576;53.614;9.894;2023-09-12T00:31:34;101009.19;;;19.23;89.98
21781;BME280;52576;53.614;9.894;2023-09-12T00:33:37;101022.66;;;19.21;90.34
21781;BME280;52576;53.614;9.894;2023-09-12T00:35:40;101010.38;;;19.20;90.48
21781;BME280;52576;53.614;9.894;2023-09-12T00:37:44;101011.50;;;19.18;90.36
21781;BME280;52576;53.614;9.894;2023-09-12T00:39:46;100996.69;;;19.15;90.16
21781;BME280;52576;53.614;9.894;2023-09-12T00:41:50;100999.50;;;19.14;90.47
21781;BME280;52576;53.614;9.894;2023-09-12T00:43:53;100990.00;;;19.11;90.51
21781;BME280;52576;53.614;9.894;2023-09-12T00:45:56;100997.44;;;19.08;90.60
21781;BME280;52576;53.614;9.894;2023-09-12T00:48:00;100990.63;;;19.05;90.83
21781;BME280;52576;53.614;9.894;2023-09-12T00:50:05;100992.59;;;19.03;90.99
21781;BME280;52576;53.614;9.894;2023-09-12T00:52:08;100992.88;;;19.00;91.20
21781;BME280;52576;53.614;9.894;2023-09-12T00:54:12;100991.22;;;18.99;91.18
21781;BME280;52576;53.614;9.894;2023-09-12T00:56:16;100998.50;;;18.97;91.20
21781;BME280;52576;53.614;9.894;2023-09-12T00:58:19;100996.84;;;18.96;91.55
21781;BME280;52576;53.614;9.894;2023-09-12T01:00:22;100989.88;;;18.95;91.45
21781;BME280;52576;53.614;9.894;2023-09-12T01:02:25;100984.84;;;18.92;91.50
21781;BME280;52576;53.614;9.894;2023-09-12T01:04:29;100984.84;;;18.92;91.53
21781;BME280;52576;53.614;9.894;2023-09-12T01:06:36;100977.88;;;18.91;91.76
21781;BME280;52576;53.614;9.894;2023-09-12T01:08:40;100969.22;;;18.89;91.93
21781;BME280;52576;53.614;9.894;2023-09-12T01:10:46;100972.88;;;18.88;91.98
21781;BME280;52576;53.614;9.894;2023-09-12T01:12:50;100964.06;;;18.87;91.94
21781;BME280;52576;53.614;9.894;2023-09-12T01:14:55;100954.41;;;18.86;92.26
21781;BME280;52576;53.614;9.894;2023-09-12T01:16:59;100947.44;;;18.85;92.28
21781;BME280;52576;53.614;9.894;2023-09-12T01:19:05;100949.25;;;18.85;92.25
21781;BME280;52576;53.614;9.894;2023-09-12T01:21:38;100944.09;;;18.83;92.28
21781;BME280;52576;53.614;9.894;2023-09-12T01:23:53;100939.63;;;18.84;92.39
21781;BME280;52576;53.614;9.894;2023-09-12T01:26:23;100932.63;;;18.83;92.44
21781;BME280;52576;53.614;9.894;2023-09-12T01:28:34;100934.59;;;18.81;92.56
21781;BME280;52576;53.614;9.894;2023-09-12T01:30:39;100925.97;;;18.79;92.25
21781;BME280;52576;53.614;9.894;2023-09-12T01:32:42;100924.28;;;18.78;92.57
21781;BME280;52576;53.614;9.894;2023-09-12T01:34:47;100913.66;;;18.78;92.71
21781;BME280;52576;53.614;9.894;2023-09-12T01:36:49;100906.69;;;18.77;92.85
21781;BME280;52576;53.614;9.894;2023-09-12T01:38:52;100904.03;;;18.77;92.94
21781;BME280;52576;53.614;9.894;2023-09-12T01:40:56;100895.38;;;18.75;92.94
21781;BME280;52576;53.614;9.894;2023-09-12T01:43:00;100896.38;;;18.74;92.98
21781;BME280;52576;53.614;9.894;2023-09-12T01:45:09;100895.69;;;18.72;93.21
21781;BME280;52576;53.614;9.894;2023-09-12T01:47:13;100905.31;;;18.73;93.07
21781;BME280;52576;53.614;9.894;2023-09-12T01:49:19;100907.97;;;18.73;93.12
21781;BME280;52576;53.614;9.894;2023-09-12T01:51:24;100922.22;;;18.72;93.29
21781;BME280;52576;53.614;9.894;2023-09-12T01:53:28;100942.50;;;18.73;93.74
21781;BME280;52576;53.614;9.894;2023-09-12T01:55:31;100950.31;;;18.74;93.89
21781;BME280;52576;53.614;9.894;2023-09-12T01:57:35;100949.16;;;18.77;93.57
21781;BME280;52576;53.614;9.894;2023-09-12T01:59:38;100959.78;;;18.77;93.76
21781;BME280;52576;53.614;9.894;2023-09-12T02:01:43;100959.78;;;18.77;93.70
21781;BME280;52576;53.614;9.894;2023-09-12T02:03:46;100965.09;;;18.77;93.68
21781;BME280;52576;53.614;9.894;2023-09-12T02:05:49;100977.41;;;18.78;93.96
21781;BME280;52576;53.614;9.894;2023-09-12T02:07:52;100980.06;;;18.78;93.63
21781;BME280;52576;53.614;9.894;2023-09-12T02:09:54;100972.09;;;18.78;93.89
21781;BME280;52576;53.614;9.894;2023-09-12T02:11:57;100983.41;;;18.80;93.70
21781;BME280;52576;53.614;9.894;2023-09-12T02:14:00;100988.84;;;18.78;93.81
21781;BME280;52576;53.614;9.894;2023-09-12T02:16:04;100963.13;;;18.79;93.87
21781;BME280;52576;53.614;9.894;2023-09-12T02:18:08;100963.13;;;18.79;93.91
21781;BME280;52576;53.614;9.894;2023-09-12T02:20:11;100973.75;;;18.79;93.85
21781;BME280;52576;53.614;9.894;2023-09-12T02:22:15;100989.69;;;18.79;93.85
21781;BME280;52576;53.614;9.894;2023-09-12T02:24:18;100979.06;;;18.79;93.96
21781;BME280;52576;53.614;9.894;2023-09-12T02:26:23;100985.22;;;18.79;94.12
21781;BME280;52576;53.614;9.894;2023-09-12T02:28:26;100985.06;;;18.81;94.19
21781;BME280;52576;53.614;9.894;2023-09-12T02:30:29;100988.56;;;18.81;93.99
21781;BME280;52576;53.614;9.894;2023-09-12T02:32:33;100984.09;;;18.82;94.00
21781;BME280;52576;53.614;9.894;2023-09-12T02:34:38;100986.59;;;18.83;93.96
21781;BME280;52576;53.614;9.894;2023-09-12T02:36:41;100991.06;;;18.83;94.15
21781;BME280;52576;53.614;9.894;2023-09-12T02:38:44;100997.91;;;18.85;93.94
21781;BME280;52576;53.614;9.894;2023-09-12T02:40:47;101009.50;;;18.84;94.01
21781;BME280;52576;53.614;9.894;2023-09-12T02:42:50;101010.34;;;18.85;93.82
21781;BME280;52576;53.614;9.894;2023-09-12T02:44:53;100999.72;;;18.85;93.82
21781;BME280;52576;53.614;9.894;2023-09-12T02:46:55;100994.41;;;18.85;93.83
21781;BME280;52576;53.614;9.894;2023-09-12T02:48:58;101006.00;;;18.84;94.01
21781;BME280;52576;53.614;9.894;2023-09-12T02:51:03;101000.69;;;18.84;93.96
21781;BME280;52576;53.614;9.894;2023-09-12T02:53:06;101016.50;;;18.85;94.20
21781;BME280;52576;53.614;9.894;2023-09-12T02:55:09;101026.97;;;18.87;94.37
21781;BME280;52576;53.614;9.894;2023-09-12T02:57:12;101020.66;;;18.88;94.40
21781;BME280;52576;53.614;9.894;2023-09-12T02:59:15;101020.38;;;18.91;94.06
21781;BME280;52576;53.614;9.894;2023-09-12T03:01:20;101012.41;;;18.91;94.30
21781;BME280;52576;53.614;9.894;2023-09-12T03:03:23;101014.06;;;18.92;94.03
21781;BME280;52576;53.614;9.894;2023-09-12T03:05:26;101014.75;;;18.94;94.13
21781;BME280;52576;53.614;9.894;2023-09-12T03:07:31;101008.47;;;18.95;94.20
21781;BME280;52576;53.614;9.894;2023-09-12T03:09:34;101025.06;;;18.97;94.23
21781;BME280;52576;53.614;9.894;2023-09-12T03:11:39;101025.06;;;18.97;94.09
21781;BME280;52576;53.614;9.894;2023-09-12T03:13:42;101028.56;;;18.97;94.08
21781;BME280;52576;53.614;9.894;2023-09-12T03:15:45;101023.09;;;18.99;94.27
21781;BME280;52576;53.614;9.894;2023-09-12T03:17:48;101027.41;;;19.00;94.09
21781;BME280;52576;53.614;9.894;2023-09-12T03:19:51;101019.44;;;19.00;94.06
21781;BME280;52576;53.614;9.894;2023-09-12T03:21:55;101022.09;;;19.00;93.92
21781;BME280;52576;53.614;9.894;2023-09-12T03:24:00;101016.09;;;18.98;93.79
21781;BME280;52576;53.614;9.894;2023-09-12T03:26:04;101010.78;;;18.98;94.21
21781;BME280;52576;53.614;9.894;2023-09-12T03:28:09;101006.31;;;18.98;94.16
21781;BME280;52576;53.614;9.894;2023-09-12T03:30:12;101003.66;;;18.98;94.22
21781;BME280;52576;53.614;9.894;2023-09-12T03:32:14;100998.50;;;18.97;94.17
21781;BME280;52576;53.614;9.894;2023-09-12T03:34:17;100992.38;;;18.96;94.38
21781;BME280;52576;53.614;9.894;2023-09-12T03:36:20;101003.81;;;18.97;94.29
21781;BME280;52576;53.614;9.894;2023-09-12T03:38:23;100998.50;;;18.97;94.49
21781;BME280;52576;53.614;9.894;2023-09-12T03:40:28;100998.50;;;18.97;94.44
21781;BME280;52576;53.614;9.894;2023-09-12T03:42:31;100988.72;;;18.97;94.64
21781;BME280;52576;53.614;9.894;2023-09-12T03:44:43;100987.06;;;18.96;94.61
21781;BME280;52576;53.614;9.894;2023-09-12T03:46:46;100986.22;;;18.96;94.69
21781;BME280;52576;53.614;9.894;2023-09-12T03:48:49;100985.53;;;18.94;94.51
21781;BME280;52576;53.614;9.894;2023-09-12T03:50:53;100998.81;;;18.94;94.75
21781;BME280;52576;53.614;9.894;2023-09-12T03:52:56;100998.81;;;18.94;95.01
21781;BME280;52576;53.614;9.894;2023-09-12T03:54:59;100998.81;;;18.94;95.00
21781;BME280;52576;53.614;9.894;2023-09-12T03:57:04;100996.16;;;18.94;95.04
21781;BME280;52576;53.614;9.894;2023-09-12T03:59:08;100997.16;;;18.93;94.72
21781;BME280;52576;53.614;9.894;2023-09-12T04:01:11;100995.47;;;18.92;95.33
21781;BME280;52576;53.614;9.894;2023-09-12T04:03:14;100993.81;;;18.91;95.20
21781;BME280;52576;53.614;9.894;2023-09-12T04:05:18;100998.28;;;18.90;95.53
21781;BME280;52576;53.614;9.894;2023-09-12T04:07:21;100977.88;;;18.91;95.52
21781;BME280;52576;53.614;9.894;2023-09-12T04:09:24;100989.47;;;18.90;95.54
21781;BME280;52576;53.614;9.894;2023-09-12T04:11:29;100987.81;;;18.89;95.60
21781;BME280;52576;53.614;9.894;2023-09-12T04:13:48;100976.50;;;18.87;95.77
21781;BME280;52576;53.614;9.894;2023-09-12T04:15:51;100979.31;;;18.85;95.66
21781;BME280;52576;53.614;9.894;2023-09-12T04:17:55;100970.50;;;18.85;95.88
21781;BME280;52576;53.614;9.894;2023-09-12T04:19:58;100973.47;;;18.82;96.12
21781;BME280;52576;53.614;9.894;2023-09-12T04:22:01;100973.59;;;18.80;95.93
21781;BME280;52576;53.614;9.894;2023-09-12T04:24:07;100976.41;;;18.79;95.95
21781;BME280;52576;53.614;9.894;2023-09-12T04:26:10;100974.88;;;18.76;96.31
21781;BME280;52576;53.614;9.894;2023-09-12T04:28:14;100981.34;;;18.74;96.44
21781;BME280;52576;53.614;9.894;2023-09-12T04:30:18;100982.31;;;18.73;96.54
21781;BME280;52576;53.614;9.894;2023-09-12T04:32:21;100987.78;;;18.71;96.53
21781;BME280;52576;53.614;9.894;2023-09-12T04:34:26;100981.66;;;18.71;96.98
21781;BME280;52576;53.614;9.894;2023-09-12T04:36:29;100975.50;;;18.70;96.95
21781;BME280;52576;53.614;9.894;2023-09-12T04:38:32;100976.50;;;18.69;97.11
21781;BME280;52576;53.614;9.894;2023-09-12T04:40:35;100971.34;;;18.68;97.03
21781;BME280;52576;53.614;9.894;2023-09-12T04:42:39;100971.34;;;18.68;96.99
21781;BME280;52576;53.614;9.894;2023-09-12T04:44:42;100972.31;;;18.67;97.22
21781;BME280;52576;53.614;9.894;2023-09-12T04:46:47;100965.34;;;18.66;97.49
21781;BME280;52576;53.614;9.894;2023-09-12T04:48:50;100969.81;;;18.65;97.70
21781;BME280;52576;53.614;9.894;2023-09-12T04:50:53;100974.13;;;18.66;97.80
21781;BME280;52576;53.614;9.894;2023-09-12T04:52:56;100968.69;;;18.68;97.88
21781;BME280;52576;53.614;9.894;2023-09-12T04:54:59;100962.38;;;18.69;97.75
21781;BME280;52576;53.614;9.894;2023-09-12T04:57:03;100950.94;;;18.68;97.79
21781;BME280;52576;53.614;9.894;2023-09-12T04:59:06;100956.25;;;18.68;97.76
21781;BME280;52576;53.614;9.894;2023-09-12T05:01:09;100956.38;;;18.67;97.88
21781;BME280;52576;53.614;9.894;2023-09-12T05:03:12;100962.69;;;18.66;97.94
21781;BME280;52576;53.614;9.894;2023-09-12T05:05:16;100968.81;;;18.66;97.99
21781;BME280;52576;53.614;9.894;2023-09-12T05:07:19;100969.66;;;18.67;98.27
21781;BME280;52576;53.614;9.894;2023-09-12T05:09:22;100968.00;;;18.66;98.30
21781;BME280;52576;53.614;9.894;2023-09-12T05:11:24;100970.66;;;18.66;98.18
21781;BME280;52576;53.614;9.894;2023-09-12T05:13:27;100979.59;;;18.64;98.32
21781;BME280;52576;53.614;9.894;2023-09-12T05:15:29;100987.56;;;18.64;98.31
21781;BME280;52576;53.614;9.894;2023-09-12T05:17:32;100982.25;;;18.64;98.81
21781;BME280;52576;53.614;9.894;2023-09-12T05:19:37;100983.94;;;18.66;98.74
21781;BME280;52576;53.614;9.894;2023-09-12T05:21:40;100978.63;;;18.66;98.55
21781;BME280;52576;53.614;9.894;2023-09-12T05:23:43;100978.63;;;18.66;98.81
21781;BME280;52576;53.614;9.894;2023-09-12T05:25:46;100978.63;;;18.66;98.91
21781;BME280;52576;53.614;9.894;2023-09-12T05:27:50;100978.63;;;18.66;98.82
21781;BME280;52576;53.614;9.894;2023-09-12T05:29:53;100982.25;;;18.64;98.78
21781;BME280;52576;53.614;9.894;2023-09-12T05:31:56;100995.53;;;18.64;99.06
21781;BME280;52576;53.614;9.894;2023-09-12T05:34:09;100982.25;;;18.64;98.78
21781;BME280;52576;53.614;9.894;2023-09-12T05:36:30;100997.34;;;18.64;98.91
21781;BME280;52576;53.614;9.894;2023-09-12T05:38:33;101008.94;;;18.63;99.00
21781;BME280;52576;53.614;9.894;2023-09-12T05:40:36;101006.44;;;18.61;99.11
21781;BME280;52576;53.614;9.894;2023-09-12T05:42:39;101010.75;;;18.62;98.95
21781;BME280;52576;53.614;9.894;2023-09-12T05:44:42;101016.91;;;18.63;99.27
21781;BME280;52576;53.614;9.894;2023-09-12T05:46:46;101022.22;;;18.63;99.14
21781;BME280;52576;53.614;9.894;2023-09-12T05:48:50;101010.75;;;18.62;99.40
21781;BME280;52576;53.614;9.894;2023-09-12T05:50:53;101026.69;;;18.62;99.36
21781;BME280;52576;53.614;9.894;2023-09-12T05:52:59;101033.69;;;18.63;99.28
21781;BME280;52576;53.614;9.894;2023-09-12T05:55:02;101019.41;;;18.64;99.86
21781;BME280;52576;53.614;9.894;2023-09-12T05:57:06;101018.44;;;18.66;99.57
21781;BME280;52576;53.614;9.894;2023-09-12T05:59:09;101015.78;;;18.66;99.81
21781;BME280;52576;53.614;9.894;2023-09-12T06:01:12;101020.09;;;18.67;99.72
21781;BME280;52576;53.614;9.894;2023-09-12T06:03:16;101009.50;;;18.67;99.78
21781;BME280;52576;53.614;9.894;2023-09-12T06:05:19;101021.63;;;18.69;99.92
21781;BME280;52576;53.614;9.894;2023-09-12T06:07:22;101015.16;;;18.72;99.72
21781;BME280;52576;53.614;9.894;2023-09-12T06:09:26;101016.84;;;18.73;100.00
21781;BME280;52576;53.614;9.894;2023-09-12T06:11:29;101009.56;;;18.75;99.81
21781;BME280;52576;53.614;9.894;2023-09-12T06:13:33;101000.59;;;18.76;99.67
21781;BME280;52576;53.614;9.894;2023-09-12T06:15:39;100997.66;;;18.79;99.87
21781;BME280;52576;53.614;9.894;2023-09-12T06:17:43;100984.09;;;18.82;100.00
21781;BME280;52576;53.614;9.894;2023-09-12T06:19:46;100994.41;;;18.85;100.00
21781;BME280;52576;53.614;9.894;2023-09-12T06:21:51;100992.44;;;18.87;100.00
21781;BME280;52576;53.614;9.894;2023-09-12T06:24:08;100994.78;;;18.90;100.00
21781;BME280;52576;53.614;9.894;2023-09-12T06:26:13;100999.66;;;18.94;100.00
21781;BME280;52576;53.614;9.894;2023-09-12T06:28:24;100999.19;;;18.99;100.00
21781;BME280;52576;53.614;9.894;2023-09-12T06:30:28;101009.50;;;19.02;100.00
21781;BME280;52576;53.614;9.894;2023-09-12T06:32:31;101010.19;;;19.04;100.00
21781;BME280;52576;53.614;9.894;2023-09-12T06:34:34;101012.56;;;19.07;100.00
21781;BME280;52576;53.614;9.894;2023-09-12T06:36:38;101014.22;;;19.08;100.00
21781;BME280;52576;53.614;9.894;2023-09-12T06:38:43;101013.25;;;19.09;99.97
21781;BME280;52576;53.614;9.894;2023-09-12T06:40:46;101016.59;;;19.11;99.98
21781;BME280;52576;53.614;9.894;2023-09-12T06:42:51;101023.56;;;19.12;99.90
21781;BME280;52576;53.614;9.894;2023-09-12T06:44:54;101026.91;;;19.14;100.00
21781;BME280;52576;53.614;9.894;2023-09-12T06:46:57;101032.91;;;19.16;99.70
21781;BME280;52576;53.614;9.894;2023-09-12T06:49:00;101027.44;;;19.18;99.79
21781;BME280;52576;53.614;9.894;2023-09-12T06:51:05;101027.31;;;19.19;99.80
21781;BME280;52576;53.614;9.894;2023-09-12T06:53:16;101025.31;;;19.21;99.84
21781;BME280;52576;53.614;9.894;2023-09-12T06:55:19;101031.16;;;19.25;99.50
21781;BME280;52576;53.614;9.894;2023-09-12T06:57:24;101034.34;;;19.28;99.89
21781;BME280;52576;53.614;9.894;2023-09-12T06:59:28;101028.72;;;19.31;99.69
21781;BME280;52576;53.614;9.894;2023-09-12T07:01:31;101030.09;;;19.36;99.50
21781;BME280;52576;53.614;9.894;2023-09-12T07:03:34;101029.78;;;19.39;99.02
21781;BME280;52576;53.614;9.894;2023-09-12T07:05:37;101034.81;;;19.42;99.11
21781;BME280;52576;53.614;9.894;2023-09-12T07:07:41;101029.19;;;19.45;98.90
21781;BME280;52576;53.614;9.894;2023-09-12T07:09:45;101028.03;;;19.47;98.53
21781;BME280;52576;53.614;9.894;2023-09-12T07:11:48;101028.56;;;19.51;98.56
21781;BME280;52576;53.614;9.894;2023-09-12T07:13:51;101027.28;;;19.55;98.43
21781;BME280;52576;53.614;9.894;2023-09-12T07:15:56;101027.97;;;19.57;98.49
21781;BME280;52576;53.614;9.894;2023-09-12T07:18:00;101030.31;;;19.60;98.17
21781;BME280;52576;53.614;9.894;2023-09-12T07:20:05;101030.84;;;19.63;98.00
21781;BME280;52576;53.614;9.894;2023-09-12T07:22:13;101031.38;;;19.67;97.76
21781;BME280;52576;53.614;9.894;2023-09-12T07:24:16;101029.41;;;19.69;97.58
21781;BME280;52576;53.614;9.894;2023-09-12T07:26:19;101038.06;;;19.71;97.37
21781;BME280;52576;53.614;9.894;2023-09-12T07:28:22;101044.06;;;19.73;97.04
21781;BME280;52576;53.614;9.894;2023-09-12T07:30:24;101040.41;;;19.74;97.11
21781;BME280;52576;53.614;9.894;2023-09-12T07:32:29;101035.94;;;19.75;96.77
21781;BME280;52576;53.614;9.894;2023-09-12T07:34:32;101036.75;;;19.75;96.70
21781;BME280;52576;53.614;9.894;2023-09-12T07:36:35;101033.91;;;19.77;96.49
21781;BME280;52576;53.614;9.894;2023-09-12T07:38:39;101032.09;;;19.77;96.55
21781;BME280;52576;53.614;9.894;2023-09-12T07:40:44;101024.13;;;19.77;96.24
21781;BME280;52576;53.614;9.894;2023-09-12T07:42:47;101024.13;;;19.77;95.97
21781;BME280;52576;53.614;9.894;2023-09-12T07:44:50;101018.13;;;19.75;95.80
21781;BME280;52576;53.614;9.894;2023-09-12T07:46:53;101019.13;;;19.74;95.94
21781;BME280;52576;53.614;9.894;2023-09-12T07:48:58;101012.16;;;19.73;96.05
21781;BME280;52576;53.614;9.894;2023-09-12T07:51:01;101013.81;;;19.74;96.17
21781;BME280;52576;53.614;9.894;2023-09-12T07:53:04;101016.13;;;19.77;96.15
21781;BME280;52576;53.614;9.894;2023-09-12T07:55:08;101011.19;;;19.82;96.35
21781;BME280;52576;53.614;9.894;2023-09-12T07:57:11;101021.22;;;19.88;96.07
21781;BME280;52576;53.614;9.894;2023-09-12T07:59:15;101019.75;;;19.94;95.92
21781;BME280;52576;53.614;9.894;2023-09-12T08:01:18;101025.28;;;20.01;95.69
21781;BME280;52576;53.614;9.894;2023-09-12T08:03:22;101021.16;;;20.06;95.59
21781;BME280;52576;53.614;9.894;2023-09-12T08:05:29;101026.69;;;20.13;95.37
21781;BME280;52576;53.614;9.894;2023-09-12T08:07:32;101028.72;;;20.19;95.26
21781;BME280;52576;53.614;9.894;2023-09-12T08:09:48;101033.41;;;20.25;94.84
21781;BME280;52576;53.614;9.894;2023-09-12T08:11:51;101034.41;;;20.32;94.44
21781;BME280;52576;53.614;9.894;2023-09-12T08:13:54;101038.44;;;20.36;93.96
21781;BME280;52576;53.614;9.894;2023-09-12T08:15:59;101047.50;;;20.43;93.89
21781;BME280;52576;53.614;9.894;2023-09-12T08:18:03;101059.19;;;20.50;93.60
21781;BME280;52576;53.614;9.894;2023-09-12T08:20:07;101060.19;;;20.57;93.55
21781;BME280;52576;53.614;9.894;2023-09-12T08:22:13;101065.88;;;20.62;93.24
21781;BME280;52576;53.614;9.894;2023-09-12T08:24:16;101068.91;;;20.67;92.91
21781;BME280;52576;53.614;9.894;2023-09-12T08:26:19;101066.91;;;20.70;92.54
21781;BME280;52576;53.614;9.894;2023-09-12T08:28:22;101073.75;;;20.72;92.32
21781;BME280;52576;53.614;9.894;2023-09-12T08:30:26;101070.09;;;20.73;91.95
21781;BME280;52576;53.614;9.894;2023-09-12T08:32:30;101066.44;;;20.74;91.41
21781;BME280;52576;53.614;9.894;2023-09-12T08:34:33;101067.28;;;20.75;91.04
21781;BME280;52576;53.614;9.894;2023-09-12T08:36:37;101065.59;;;20.74;90.88
21781;BME280;52576;53.614;9.894;2023-09-12T08:38:41;101055.78;;;20.74;90.37
21781;BME280;52576;53.614;9.894;2023-09-12T08:40:48;101052.97;;;20.76;90.04
21781;BME280;52576;53.614;9.894;2023-09-12T08:42:52;101058.44;;;20.82;90.03
21781;BME280;52576;53.614;9.894;2023-09-12T08:44:55;101063.97;;;20.89;89.81
21781;BME280;52576;53.614;9.894;2023-09-12T08:46:59;101075.66;;;20.96;89.71
21781;BME280;52576;53.614;9.894;2023-09-12T08:49:04;101073.03;;;21.04;88.96
21781;BME280;52576;53.614;9.894;2023-09-12T08:51:08;101077.34;;;21.13;88.63
21781;BME280;52576;53.614;9.894;2023-09-12T08:53:14;101079.09;;;21.22;88.51
21781;BME280;52576;53.614;9.894;2023-09-12T08:55:19;101075.41;;;21.31;88.26
21781;BME280;52576;53.614;9.894;2023-09-12T08:57:22;101076.75;;;21.36;87.99
21781;BME280;52576;53.614;9.894;2023-09-12T08:59:26;101086.59;;;21.43;87.50
21781;BME280;52576;53.614;9.894;2023-09-12T09:01:30;101082.44;;;21.49;87.34
21781;BME280;52576;53.614;9.894;2023-09-12T09:03:34;101076.47;;;21.55;86.38
21781;BME280;52576;53.614;9.894;2023-09-12T09:05:42;101074.44;;;21.57;85.54
21781;BME280;52576;53.614;9.894;2023-09-12T09:07:47;101072.25;;;21.60;85.17
21781;BME280;52576;53.614;9.894;2023-09-12T09:09:51;101075.09;;;21.67;84.73
21781;BME280;52576;53.614;9.894;2023-09-12T09:11:57;101080.63;;;21.74;84.11
21781;BME280;52576;53.614;9.894;2023-09-12T09:14:01;101079.13;;;21.79;83.86
21781;BME280;52576;53.614;9.894;2023-09-12T09:16:11;101087.44;;;21.84;83.54
21781;BME280;52576;53.614;9.894;2023-09-12T09:18:15;101083.25;;;21.90;83.45
21781;BME280;52576;53.614;9.894;2023-09-12T09:20:22;101071.91;;;21.96;83.15
21781;BME280;52576;53.614;9.894;2023-09-12T09:22:26;101079.13;;;22.04;82.78
21781;BME280;52576;53.614;9.894;2023-09-12T09:24:29;101083.59;;;22.11;82.01
21781;BME280;52576;53.614;9.894;2023-09-12T09:26:41;101086.75;;;22.15;81.94
21781;BME280;52576;53.614;9.894;2023-09-12T09:28:46;101080.41;;;22.16;81.44
21781;BME280;52576;53.614;9.894;2023-09-12T09:31:02;101086.94;;;22.13;81.58
21781;BME280;52576;53.614;9.894;2023-09-12T09:33:09;101081.09;;;22.10;80.86
21781;BME280;52576;53.614;9.894;2023-09-12T09:35:13;101077.47;;;22.03;80.89
21781;BME280;52576;53.614;9.894;2023-09-12T09:37:16;101087.09;;;21.95;81.31
21781;BME280;52576;53.614;9.894;2023-09-12T09:39:23;101087.94;;;21.88;81.27
21781;BME280;52576;53.614;9.894;2023-09-12T09:41:26;101094.59;;;21.84;81.35
21781;BME280;52576;53.614;9.894;2023-09-12T09:43:30;101093.97;;;21.82;81.40
21781;BME280;52576;53.614;9.894;2023-09-12T09:45:43;101089.47;;;21.82;81.20
21781;BME280;52576;53.614;9.894;2023-09-12T09:47:49;101084.13;;;21.82;81.01
21781;BME280;52576;53.614;9.894;2023-09-12T09:49:52;101092.75;;;21.84;81.40
21781;BME280;52576;53.614;9.894;2023-09-12T09:51:55;101097.09;;;21.85;81.09
21781;BME280;52576;53.614;9.894;2023-09-12T09:53:58;101096.09;;;21.86;80.67
21781;BME280;52576;53.614;9.894;2023-09-12T09:56:12;101091.59;;;21.87;80.65
21781;BME280;52576;53.614;9.894;2023-09-12T09:58:15;101090.44;;;21.89;80.70
21781;BME280;52576;53.614;9.894;2023-09-12T10:00:21;101103.44;;;21.92;80.82
21781;BME280;52576;53.614;9.894;2023-09-12T10:02:27;101110.78;;;21.98;80.13
21781;BME280;52576;53.614;9.894;2023-09-12T10:04:31;101112.16;;;22.03;79.62
21781;BME280;52576;53.614;9.894;2023-09-12T10:06:46;101113.13;;;22.10;79.57
21781;BME280;52576;53.614;9.894;2023-09-12T10:08:51;101113.47;;;22.15;79.36
21781;BME280;52576;53.614;9.894;2023-09-12T10:10:54;101115.78;;;22.18;79.14
21781;BME280;52576;53.614;9.894;2023-09-12T10:12:58;101109.28;;;22.20;78.91
21781;BME280;52576;53.614;9.894;2023-09-12T10:15:03;101101.94;;;22.22;78.76
21781;BME280;52576;53.614;9.894;2023-09-12T10:17:08;101109.13;;;22.22;78.79
21781;BME280;52576;53.614;9.894;2023-09-12T10:19:19;101105.44;;;22.23;78.64
21781;BME280;52576;53.614;9.894;2023-09-12T10:21:28;101113.78;;;22.28;78.82
21781;BME280;52576;53.614;9.894;2023-09-12T10:23:38;101117.78;;;22.32;78.39
21781;BME280;52576;53.614;9.894;2023-09-12T10:25:44;101112.91;;;22.35;77.54
21781;BME280;52576;53.614;9.894;2023-09-12T10:27:49;101118.75;;;22.39;77.14
21781;BME280;52576;53.614;9.894;2023-09-12T10:29:53;101120.41;;;22.40;76.97
21781;BME280;52576;53.614;9.894;2023-09-12T10:31:58;101115.06;;;22.40;76.58
21781;BME280;52576;53.614;9.894;2023-09-12T10:34:02;101117.91;;;22.39;76.60
21781;BME280;52576;53.614;9.894;2023-09-12T10:36:11;101112.28;;;22.33;77.04
21781;BME280;52576;53.614;9.894;2023-09-12T10:38:16;101112.28;;;22.25;76.85
21781;BME280;52576;53.614;9.894;2023-09-12T10:40:21;101111.44;;;22.17;76.82
21781;BME280;52576;53.614;9.894;2023-09-12T10:42:25;101109.81;;;22.08;77.10
21781;BME280;52576;53.614;9.894;2023-09-12T10:44:30;101106.44;;;21.97;77.19
21781;BME280;52576;53.614;9.894;2023-09-12T10:46:35;101101.09;;;21.89;77.19
21781;BME280;52576;53.614;9.894;2023-09-12T10:48:39;101101.13;;;21.81;77.42
21781;BME280;52576;53.614;9.894;2023-09-12T10:50:44;101102.78;;;21.74;77.85